sensor_id;sensor_type;location;lat;lon;timestamp;pressure;altitude;pressure_sealevel;temperature;humidity
62697;BME280;48761;42.680;23.312;2023-11-19T00:02:10;94743.53;;;3.46;74.54
62697;BME280;48761;42.680;23.312;2023-11-19T00:04:39;94754.47;;;3.58;74.16
62697;BME280;48761;42.680;23.312;2023-11-19T00:07:06;94758.00;;;3.57;74.37
62697;BME280;48761;42.680;23.312;2023-11-19T00:09:32;94752.88;;;4.13;78.49
62697;BME280;48761;42.680;23.312;2023-11-19T00:11:59;94744.09;;;4.32;74.10
62697;BME280;48761;42.680;23.312;2023-11-19T00:14:26;94742.19;;;3.78;73.28
62697;BME280;48761;42.680;23.312;2023-11-19T00:16:52;94750.94;;;3.78;73.82
62697;BME280;48761;42.680;23.312;2023-11-19T00:19:18;94736.97;;;3.57;73.30
62697;BME280;48761;42.680;23.312;2023-11-19T00:21:46;94750.00;;;3.79;74.45
62697;BME280;48761;42.680;23.312;2023-11-19T00:24:12;94745.50;;;3.62;73.37
62697;BME280;48761;42.680;23.312;2023-11-19T00:26:38;94747.47;;;3.57;73.70
62697;BME280;48761;42.680;23.312;2023-11-19T00:29:05;94758.16;;;3.54;73.86
62697;BME280;48761;42.680;23.312;2023-11-19T00:31:31;94756.09;;;3.40;73.96
62697;BME280;48761;42.680;23.312;2023-11-19T00:33:57;94730.94;;;3.34;73.93
62697;BME280;48761;42.680;23.312;2023-11-19T00:36:23;94751.84;;;3.37;74.56
62697;BME280;48761;42.680;23.312;2023-11-19T00:38:51;94732.91;;;3.29;74.67
62697;BME280;48761;42.680;23.312;2023-11-19T00:41:17;94767.34;;;3.43;74.28
62697;BME280;48761;42.680;23.312;2023-11-19T00:43:45;94745.06;;;3.52;74.19
62697;BME280;48761;42.680;23.312;2023-11-19T00:46:11;94753.28;;;3.44;74.42
62697;BME280;48761;42.680;23.312;2023-11-19T00:48:37;94760.50;;;3.60;74.02
62697;BME280;48761;42.680;23.312;2023-11-19T00:51:03;94766.66;;;3.59;73.96
62697;BME280;48761;42.680;23.312;2023-11-19T00:53:30;94763.94;;;3.41;74.74
62697;BME280;48761;42.680;23.312;2023-11-19T00:55:56;94760.44;;;3.41;74.60
62697;BME280;48761;42.680;23.312;2023-11-19T00:58:22;94760.81;;;3.52;74.44
62697;BME280;48761;42.680;23.312;2023-11-19T01:00:47;94742.25;;;3.36;74.62
62697;BME280;48761;42.680;23.312;2023-11-19T01:03:13;94767.88;;;3.31;74.70
62697;BME280;48761;42.680;23.312;2023-11-19T01:05:39;94733.44;;;3.16;74.63
62697;BME280;48761;42.680;23.312;2023-11-19T01:08:07;94757.03;;;3.39;74.63
62697;BME280;48761;42.680;23.312;2023-11-19T01:10:37;94741.00;;;3.24;74.76
62697;BME280;48761;42.680;23.312;2023-11-19T01:13:03;94776.81;;;3.47;74.41
62697;BME280;48761;42.680;23.312;2023-11-19T01:15:29;94757.09;;;3.37;74.43
62697;BME280;48761;42.680;23.312;2023-11-19T01:17:55;94780.34;;;3.46;74.40
62697;BME280;48761;42.680;23.312;2023-11-19T01:20:21;94777.59;;;3.50;74.41
62697;BME280;48761;42.680;23.312;2023-11-19T01:22:49;94773.25;;;3.49;73.70
62697;BME280;48761;42.680;23.312;2023-11-19T01:25:15;94775.81;;;3.50;73.95
62697;BME280;48761;42.680;23.312;2023-11-19T01:27:41;94775.44;;;3.39;74.76
62697;BME280;48761;42.680;23.312;2023-11-19T01:30:07;94765.38;;;3.49;74.10
62697;BME280;48761;42.680;23.312;2023-11-19T01:32:34;94763.78;;;3.44;73.88
62697;BME280;48761;42.680;23.312;2023-11-19T01:34:59;94786.25;;;3.52;73.65
62697;BME280;48761;42.680;23.312;2023-11-19T01:37:26;94787.78;;;3.57;73.59
62697;BME280;48761;42.680;23.312;2023-11-19T01:39:52;94795.84;;;3.53;73.29
62697;BME280;48761;42.680;23.312;2023-11-19T01:42:18;94789.16;;;3.66;73.04
62697;BME280;48761;42.680;23.312;2023-11-19T01:44:56;94781.41;;;3.42;73.13
62697;BME280;48761;42.680;23.312;2023-11-19T01:47:23;94781.44;;;3.62;72.80
62697;BME280;48761;42.680;23.312;2023-11-19T01:49:49;94780.75;;;3.58;72.54
62697;BME280;48761;42.680;23.312;2023-11-19T01:52:15;94776.13;;;3.63;72.03
62697;BME280;48761;42.680;23.312;2023-11-19T01:54:41;94789.69;;;3.54;72.27
62697;BME280;48761;42.680;23.312;2023-11-19T01:57:07;94782.84;;;3.50;72.39
62697;BME280;48761;42.680;23.312;2023-11-19T01:59:33;94787.84;;;3.56;72.10
62697;BME280;48761;42.680;23.312;2023-11-19T02:01:59;94783.44;;;3.56;72.37
62697;BME280;48761;42.680;23.312;2023-11-19T02:04:25;94773.78;;;3.36;72.19
62697;BME280;48761;42.680;23.312;2023-11-19T02:06:51;94769.81;;;3.05;72.69
62697;BME280;48761;42.680;23.312;2023-11-19T02:09:19;94756.44;;;3.11;72.36
62697;BME280;48761;42.680;23.312;2023-11-19T02:11:46;94764.84;;;3.19;72.46
62697;BME280;48761;42.680;23.312;2023-11-19T02:14:12;94770.38;;;3.13;72.62
62697;BME280;48761;42.680;23.312;2023-11-19T02:16:38;94770.88;;;3.21;72.25
62697;BME280;48761;42.680;23.312;2023-11-19T02:19:04;94767.94;;;3.08;73.05
62697;BME280;48761;42.680;23.312;2023-11-19T02:21:30;94763.28;;;3.15;73.08
62697;BME280;48761;42.680;23.312;2023-11-19T02:23:56;94773.91;;;3.12;72.89
62697;BME280;48761;42.680;23.312;2023-11-19T02:26:53;94770.38;;;3.13;72.71
62697;BME280;48761;42.680;23.312;2023-11-19T02:29:24;94784.69;;;3.06;72.43
62697;BME280;48761;42.680;23.312;2023-11-19T02:31:50;94774.03;;;3.09;72.50
62697;BME280;48761;42.680;23.312;2023-11-19T02:35:14;94782.75;;;3.09;72.38
62697;BME280;48761;42.680;23.312;2023-11-19T02:37:20;94744.72;;;2.97;72.95
62697;BME280;48761;42.680;23.312;2023-11-19T02:39:46;94764.50;;;3.27;72.62
62697;BME280;48761;42.680;23.312;2023-11-19T02:42:12;94773.25;;;3.28;72.21
62697;BME280;48761;42.680;23.312;2023-11-19T02:44:38;94750.78;;;3.20;72.14
62697;BME280;48761;42.680;23.312;2023-11-19T02:47:05;94761.53;;;3.14;73.08
62697;BME280;48761;42.680;23.312;2023-11-19T02:49:31;94777.47;;;3.11;72.53
62697;BME280;48761;42.680;23.312;2023-11-19T02:51:57;94780.72;;;3.16;71.95
62697;BME280;48761;42.680;23.312;2023-11-19T02:54:23;94756.81;;;3.01;72.83
62697;BME280;48761;42.680;23.312;2023-11-19T02:56:49;94774.28;;;3.02;72.90
62697;BME280;48761;42.680;23.312;2023-11-19T02:59:15;94773.91;;;3.12;72.55
62697;BME280;48761;42.680;23.312;2023-11-19T03:01:40;94760.97;;;3.28;72.38
62697;BME280;48761;42.680;23.312;2023-11-19T03:04:06;94769.06;;;3.23;71.97
62697;BME280;48761;42.680;23.312;2023-11-19T03:06:41;94743.75;;;3.00;72.62
62697;BME280;48761;42.680;23.312;2023-11-19T03:09:07;94763.78;;;3.02;72.53
62697;BME280;48761;42.680;23.312;2023-11-19T03:11:33;94774.44;;;3.20;72.73
62697;BME280;48761;42.680;23.312;2023-11-19T03:13:59;94790.28;;;2.96;72.54
62697;BME280;48761;42.680;23.312;2023-11-19T03:16:25;94784.25;;;2.94;73.25
62697;BME280;48761;42.680;23.312;2023-11-19T03:18:51;94782.97;;;3.05;73.67
62697;BME280;48761;42.680;23.312;2023-11-19T03:21:16;94764.53;;;2.84;73.14
62697;BME280;48761;42.680;23.312;2023-11-19T03:23:43;94790.06;;;3.02;73.08
62697;BME280;48761;42.680;23.312;2023-11-19T03:26:10;94779.63;;;2.78;73.50
62697;BME280;48761;42.680;23.312;2023-11-19T03:28:36;94779.44;;;3.06;73.01
62697;BME280;48761;42.680;23.312;2023-11-19T03:31:05;94787.16;;;2.88;73.78
62697;BME280;48761;42.680;23.312;2023-11-19T03:33:32;94775.03;;;2.84;74.21
62697;BME280;48761;42.680;23.312;2023-11-19T03:35:58;94775.88;;;3.07;74.14
62697;BME280;48761;42.680;23.312;2023-11-19T03:38:24;94792.25;;;2.91;73.82
62697;BME280;48761;42.680;23.312;2023-11-19T03:40:51;94774.25;;;2.82;74.29
62697;BME280;48761;42.680;23.312;2023-11-19T03:43:17;94804.22;;;2.98;73.32
62697;BME280;48761;42.680;23.312;2023-11-19T03:45:43;94775.69;;;2.89;73.82
62697;BME280;48761;42.680;23.312;2023-11-19T03:48:09;94791.06;;;2.77;73.82
62697;BME280;48761;42.680;23.312;2023-11-19T03:50:35;94811.28;;;2.96;73.81
62697;BME280;48761;42.680;23.312;2023-11-19T03:53:01;94816.88;;;3.11;73.10
62697;BME280;48761;42.680;23.312;2023-11-19T03:55:27;94818.50;;;2.91;73.73
62697;BME280;48761;42.680;23.312;2023-11-19T03:57:53;94808.75;;;2.72;73.74
62697;BME280;48761;42.680;23.312;2023-11-19T04:00:19;94805.19;;;2.73;74.29
62697;BME280;48761;42.680;23.312;2023-11-19T04:02:45;94801.66;;;2.74;73.97
62697;BME280;48761;42.680;23.312;2023-11-19T04:05:12;94820.72;;;2.79;74.22
62697;BME280;48761;42.680;23.312;2023-11-19T04:07:38;94818.16;;;2.78;73.52
62697;BME280;48761;42.680;23.312;2023-11-19T04:10:04;94815.84;;;2.70;73.66
62697;BME280;48761;42.680;23.312;2023-11-19T04:12:31;94836.00;;;2.69;74.64
62697;BME280;48761;42.680;23.312;2023-11-19T04:14:57;94831.72;;;2.67;74.33
62697;BME280;48761;42.680;23.312;2023-11-19T04:17:24;94853.63;;;2.66;74.43
62697;BME280;48761;42.680;23.312;2023-11-19T04:19:50;94845.03;;;2.85;73.85
62697;BME280;48761;42.680;23.312;2023-11-19T04:22:15;94843.00;;;2.69;73.82
62697;BME280;48761;42.680;23.312;2023-11-19T04:24:44;94845.56;;;2.71;74.03
62697;BME280;48761;42.680;23.312;2023-11-19T04:27:10;94842.97;;;2.93;73.82
62697;BME280;48761;42.680;23.312;2023-11-19T04:29:36;94821.41;;;2.85;73.66
62697;BME280;48761;42.680;23.312;2023-11-19T04:32:05;94827.63;;;2.82;74.05
62697;BME280;48761;42.680;23.312;2023-11-19T04:34:31;94827.81;;;3.00;72.53
62697;BME280;48761;42.680;23.312;2023-11-19T04:36:57;94862.13;;;2.95;73.02
62697;BME280;48761;42.680;23.312;2023-11-19T04:39:23;94834.91;;;2.75;72.95
62697;BME280;48761;42.680;23.312;2023-11-19T04:41:49;94855.53;;;2.85;73.05
62697;BME280;48761;42.680;23.312;2023-11-19T04:44:18;94867.13;;;3.01;72.86
62697;BME280;48761;42.680;23.312;2023-11-19T04:46:45;94861.56;;;3.09;72.84
62697;BME280;48761;42.680;23.312;2023-11-19T04:49:11;94854.28;;;2.94;72.43
62697;BME280;48761;42.680;23.312;2023-11-19T04:51:41;94856.09;;;2.93;72.62
62697;BME280;48761;42.680;23.312;2023-11-19T04:54:08;94861.38;;;3.14;71.60
62697;BME280;48761;42.680;23.312;2023-11-19T04:56:38;94866.44;;;2.96;72.27
62697;BME280;48761;42.680;23.312;2023-11-19T04:59:04;94850.50;;;3.01;72.31
62697;BME280;48761;42.680;23.312;2023-11-19T05:01:30;94867.69;;;3.10;72.11
62697;BME280;48761;42.680;23.312;2023-11-19T05:03:56;94872.16;;;3.29;72.09
62697;BME280;48761;42.680;23.312;2023-11-19T05:06:22;94880.31;;;3.22;71.67
62697;BME280;48761;42.680;23.312;2023-11-19T05:08:50;94868.84;;;3.02;71.56
62697;BME280;48761;42.680;23.312;2023-11-19T05:11:16;94876.28;;;2.91;71.35
62697;BME280;48761;42.680;23.312;2023-11-19T05:13:44;94895.78;;;3.08;71.89
62697;BME280;48761;42.680;23.312;2023-11-19T05:16:11;94886.19;;;3.07;71.55
62697;BME280;48761;42.680;23.312;2023-11-19T05:18:36;94888.88;;;3.05;71.75
62697;BME280;48761;42.680;23.312;2023-11-19T05:21:02;94860.97;;;3.02;71.26
62697;BME280;48761;42.680;23.312;2023-11-19T05:23:28;94877.41;;;3.08;70.96
62697;BME280;48761;42.680;23.312;2023-11-19T05:25:54;94887.59;;;3.38;71.49
62697;BME280;48761;42.680;23.312;2023-11-19T05:28:20;94868.53;;;3.10;70.99
62697;BME280;48761;42.680;23.312;2023-11-19T05:30:46;94884.47;;;3.28;71.60
62697;BME280;48761;42.680;23.312;2023-11-19T05:33:12;94884.34;;;3.09;71.17
62697;BME280;48761;42.680;23.312;2023-11-19T05:35:38;94886.06;;;3.10;71.45
62697;BME280;48761;42.680;23.312;2023-11-19T05:38:04;94858.84;;;2.90;71.43
62697;BME280;48761;42.680;23.312;2023-11-19T05:40:30;94885.94;;;3.35;71.58
62697;BME280;48761;42.680;23.312;2023-11-19T05:42:56;94882.66;;;3.08;71.54
62697;BME280;48761;42.680;23.312;2023-11-19T05:45:22;94890.94;;;3.19;71.06
62697;BME280;48761;42.680;23.312;2023-11-19T05:47:48;94878.59;;;2.99;71.54
62697;BME280;48761;42.680;23.312;2023-11-19T05:50:14;94900.59;;;2.96;71.91
62697;BME280;48761;42.680;23.312;2023-11-19T05:52:39;94888.91;;;2.81;71.88
62697;BME280;48761;42.680;23.312;2023-11-19T05:55:06;94910.75;;;3.06;71.58
62697;BME280;48761;42.680;23.312;2023-11-19T05:57:32;94889.56;;;2.88;71.64
62697;BME280;48761;42.680;23.312;2023-11-19T05:59:58;94893.88;;;2.89;71.82
62697;BME280;48761;42.680;23.312;2023-11-19T06:02:23;94903.09;;;2.99;71.50
62697;BME280;48761;42.680;23.312;2023-11-19T06:04:49;94898.22;;;2.90;72.53
62697;BME280;48761;42.680;23.312;2023-11-19T06:07:15;94917.47;;;2.90;71.99
62697;BME280;48761;42.680;23.312;2023-11-19T06:09:41;94909.13;;;2.79;72.15
62697;BME280;48761;42.680;23.312;2023-11-19T06:12:07;94929.16;;;2.82;73.01
62697;BME280;48761;42.680;23.312;2023-11-19T06:14:33;94926.38;;;3.09;72.64
62697;BME280;48761;42.680;23.312;2023-11-19T06:16:59;94918.81;;;3.23;72.25
62697;BME280;48761;42.680;23.312;2023-11-19T06:19:25;94920.69;;;2.97;72.16
62697;BME280;48761;42.680;23.312;2023-11-19T06:21:51;94914.16;;;2.85;72.19
62697;BME280;48761;42.680;23.312;2023-11-19T06:24:17;94911.09;;;2.96;71.76
62697;BME280;48761;42.680;23.312;2023-11-19T06:26:43;94904.75;;;2.79;71.88
62697;BME280;48761;42.680;23.312;2023-11-19T06:29:09;94922.72;;;2.90;72.32
62697;BME280;48761;42.680;23.312;2023-11-19T06:31:35;94926.19;;;2.91;72.39
62697;BME280;48761;42.680;23.312;2023-11-19T06:34:01;94917.97;;;3.00;72.05
62697;BME280;48761;42.680;23.312;2023-11-19T06:36:27;94899.88;;;2.93;72.39
62697;BME280;48761;42.680;23.312;2023-11-19T06:38:53;94913.59;;;2.77;72.48
62697;BME280;48761;42.680;23.312;2023-11-19T06:41:19;94923.22;;;2.76;72.31
62697;BME280;48761;42.680;23.312;2023-11-19T06:43:45;94918.66;;;3.06;72.67
62697;BME280;48761;42.680;23.312;2023-11-19T06:46:17;94921.94;;;3.11;72.07
62697;BME280;48761;42.680;23.312;2023-11-19T06:48:43;94927.34;;;3.06;71.84
62697;BME280;48761;42.680;23.312;2023-11-19T06:51:10;94899.69;;;2.75;71.52
62697;BME280;48761;42.680;23.312;2023-11-19T06:53:36;94916.81;;;3.08;71.83
62697;BME280;48761;42.680;23.312;2023-11-19T06:56:03;94914.50;;;2.98;70.92
62697;BME280;48761;42.680;23.312;2023-11-19T06:58:29;94908.09;;;2.83;71.18
62697;BME280;48761;42.680;23.312;2023-11-19T07:00:55;94919.78;;;2.98;71.37
62697;BME280;48761;42.680;23.312;2023-11-19T07:03:20;94935.53;;;2.98;70.63
62697;BME280;48761;42.680;23.312;2023-11-19T07:05:47;94935.72;;;2.94;71.75
62697;BME280;48761;42.680;23.312;2023-11-19T07:08:13;94894.22;;;2.57;70.92
62697;BME280;48761;42.680;23.312;2023-11-19T07:10:39;94940.97;;;2.94;71.21
62697;BME280;48761;42.680;23.312;2023-11-19T07:13:06;94941.50;;;2.79;71.09
62697;BME280;48761;42.680;23.312;2023-11-19T07:15:31;94930.75;;;2.86;70.86
62697;BME280;48761;42.680;23.312;2023-11-19T07:17:58;94920.13;;;2.89;70.87
62697;BME280;48761;42.680;23.312;2023-11-19T07:20:24;94933.47;;;3.07;73.42
62697;BME280;48761;42.680;23.312;2023-11-19T07:22:50;94917.22;;;2.97;70.41
62697;BME280;48761;42.680;23.312;2023-11-19T07:25:16;94910.41;;;2.68;70.84
62697;BME280;48761;42.680;23.312;2023-11-19T07:27:41;94938.84;;;3.03;70.34
62697;BME280;48761;42.680;23.312;2023-11-19T07:30:08;94938.59;;;3.10;70.37
62697;BME280;48761;42.680;23.312;2023-11-19T07:32:35;94947.66;;;3.02;70.45
62697;BME280;48761;42.680;23.312;2023-11-19T07:35:01;94934.88;;;2.93;69.78
62697;BME280;48761;42.680;23.312;2023-11-19T07:37:27;94936.22;;;3.03;69.50
62697;BME280;48761;42.680;23.312;2023-11-19T07:39:52;94969.03;;;2.93;70.04
62697;BME280;48761;42.680;23.312;2023-11-19T07:42:18;94968.22;;;3.13;70.30
62697;BME280;48761;42.680;23.312;2023-11-19T07:44:44;94977.16;;;3.32;69.76
62697;BME280;48761;42.680;23.312;2023-11-19T07:47:10;94979.75;;;3.33;69.15
62697;BME280;48761;42.680;23.312;2023-11-19T07:49:36;94965.06;;;3.28;69.43
62697;BME280;48761;42.680;23.312;2023-11-19T07:52:02;94961.41;;;3.32;68.87
62697;BME280;48761;42.680;23.312;2023-11-19T07:54:28;94974.66;;;3.29;68.50
62697;BME280;48761;42.680;23.312;2023-11-19T07:56:54;94972.75;;;3.10;68.55
62697;BME280;48761;42.680;23.312;2023-11-19T07:59:22;94977.22;;;3.08;69.13
62697;BME280;48761;42.680;23.312;2023-11-19T08:01:48;94964.16;;;2.82;69.37
62697;BME280;48761;42.680;23.312;2023-11-19T08:04:14;94960.00;;;3.00;69.38
62697;BME280;48761;42.680;23.312;2023-11-19T08:06:40;94986.56;;;3.15;69.13
62697;BME280;48761;42.680;23.312;2023-11-19T08:09:06;94990.19;;;3.12;69.04
62697;BME280;48761;42.680;23.312;2023-11-19T08:11:33;94985.91;;;3.10;68.69
62697;BME280;48761;42.680;23.312;2023-11-19T08:13:59;94951.84;;;3.07;68.92
62697;BME280;48761;42.680;23.312;2023-11-19T08:16:25;94996.91;;;3.20;68.89
62697;BME280;48761;42.680;23.312;2023-11-19T08:18:51;94995.03;;;3.23;68.61
62697;BME280;48761;42.680;23.312;2023-11-19T08:21:16;95001.66;;;3.10;68.68
62697;BME280;48761;42.680;23.312;2023-11-19T08:23:42;94988.81;;;3.02;69.49
62697;BME280;48761;42.680;23.312;2023-11-19T08:26:08;94993.19;;;3.25;70.57
62697;BME280;48761;42.680;23.312;2023-11-19T08:28:34;94995.53;;;3.09;68.54
62697;BME280;48761;42.680;23.312;2023-11-19T08:31:00;95008.03;;;3.27;68.77
62697;BME280;48761;42.680;23.312;2023-11-19T08:33:26;94990.94;;;3.39;68.28
62697;BME280;48761;42.680;23.312;2023-11-19T08:35:55;94992.59;;;3.41;68.01
62697;BME280;48761;42.680;23.312;2023-11-19T08:38:21;94998.00;;;3.59;67.44
62697;BME280;48761;42.680;23.312;2023-11-19T08:40:47;94981.03;;;3.45;67.03
62697;BME280;48761;42.680;23.312;2023-11-19T08:43:13;95016.59;;;3.32;67.48
62697;BME280;48761;42.680;23.312;2023-11-19T08:45:39;95010.94;;;3.19;67.53
62697;BME280;48761;42.680;23.312;2023-11-19T08:48:05;94996.91;;;3.42;67.49
62697;BME280;48761;42.680;23.312;2023-11-19T08:50:31;94963.97;;;3.11;67.01
62697;BME280;48761;42.680;23.312;2023-11-19T08:52:57;94990.56;;;3.48;67.18
62697;BME280;48761;42.680;23.312;2023-11-19T08:55:23;94988.47;;;3.34;67.41
62697;BME280;48761;42.680;23.312;2023-11-19T08:57:48;95016.66;;;3.53;66.75
62697;BME280;48761;42.680;23.312;2023-11-19T09:00:16;95017.09;;;3.64;67.06
62697;BME280;48761;42.680;23.312;2023-11-19T09:02:42;95010.94;;;3.43;66.95
62697;BME280;48761;42.680;23.312;2023-11-19T09:05:08;95000.72;;;3.57;66.90
62697;BME280;48761;42.680;23.312;2023-11-19T09:07:34;94992.53;;;3.65;66.36
62697;BME280;48761;42.680;23.312;2023-11-19T09:10:00;95000.22;;;3.70;67.25
62697;BME280;48761;42.680;23.312;2023-11-19T09:12:27;94983.84;;;3.63;66.15
62697;BME280;48761;42.680;23.312;2023-11-19T09:14:53;94990.78;;;3.64;66.39
62697;BME280;48761;42.680;23.312;2023-11-19T09:17:19;94951.97;;;3.71;65.98
62697;BME280;48761;42.680;23.312;2023-11-19T09:19:44;94982.94;;;3.85;65.56
62697;BME280;48761;42.680;23.312;2023-11-19T09:22:10;94971.75;;;3.80;65.91
62697;BME280;48761;42.680;23.312;2023-11-19T09:24:40;95000.63;;;4.04;64.50
62697;BME280;48761;42.680;23.312;2023-11-19T09:27:06;94976.50;;;3.72;64.97
62697;BME280;48761;42.680;23.312;2023-11-19T09:29:32;95013.66;;;3.62;65.55
62697;BME280;48761;42.680;23.312;2023-11-19T09:31:58;95017.56;;;3.74;65.13
62697;BME280;48761;42.680;23.312;2023-11-19T09:34:24;95000.34;;;3.44;65.99
62697;BME280;48761;42.680;23.312;2023-11-19T09:36:50;94980.75;;;3.74;67.39
62697;BME280;48761;42.680;23.312;2023-11-19T09:39:16;94984.88;;;4.02;66.17
62697;BME280;48761;42.680;23.312;2023-11-19T09:41:42;94981.91;;;3.89;65.94
62697;BME280;48761;42.680;23.312;2023-11-19T09:44:09;94966.84;;;3.50;65.20
62697;BME280;48761;42.680;23.312;2023-11-19T09:46:36;94972.53;;;3.61;65.20
62697;BME280;48761;42.680;23.312;2023-11-19T09:49:02;94924.31;;;3.17;65.26
62697;BME280;48761;42.680;23.312;2023-11-19T09:51:30;94944.94;;;3.49;66.00
62697;BME280;48761;42.680;23.312;2023-11-19T09:53:56;94936.44;;;3.65;65.89
62697;BME280;48761;42.680;23.312;2023-11-19T09:56:22;94907.28;;;3.71;65.41
62697;BME280;48761;42.680;23.312;2023-11-19T09:58:52;94903.16;;;3.43;65.80
62697;BME280;48761;42.680;23.312;2023-11-19T10:01:20;94905.97;;;3.38;66.11
62697;BME280;48761;42.680;23.312;2023-11-19T10:03:47;94918.66;;;3.72;64.96
62697;BME280;48761;42.680;23.312;2023-11-19T10:06:14;94938.03;;;3.90;65.00
62697;BME280;48761;42.680;23.312;2023-11-19T10:08:41;94927.97;;;4.00;64.41
62697;BME280;48761;42.680;23.312;2023-11-19T10:11:08;94926.88;;;4.06;65.34
62697;BME280;48761;42.680;23.312;2023-11-19T10:13:35;94932.25;;;4.02;65.08
62697;BME280;48761;42.680;23.312;2023-11-19T10:16:04;94923.66;;;3.99;64.14
62697;BME280;48761;42.680;23.312;2023-11-19T10:18:30;94932.59;;;4.15;64.12
62697;BME280;48761;42.680;23.312;2023-11-19T10:20:56;94937.97;;;4.93;61.70
62697;BME280;48761;42.680;23.312;2023-11-19T10:23:22;94935.97;;;5.55;60.23
62697;BME280;48761;42.680;23.312;2023-11-19T10:25:53;94930.44;;;5.42;60.78
62697;BME280;48761;42.680;23.312;2023-11-19T10:28:20;94927.94;;;5.38;60.92
62697;BME280;48761;42.680;23.312;2023-11-19T10:30:48;94919.25;;;4.99;61.52
62697;BME280;48761;42.680;23.312;2023-11-19T10:33:14;94918.69;;;4.92;61.71
62697;BME280;48761;42.680;23.312;2023-11-19T10:35:54;94916.88;;;4.54;62.35
62697;BME280;48761;42.680;23.312;2023-11-19T10:38:20;94912.19;;;4.61;62.69
62697;BME280;48761;42.680;23.312;2023-11-19T10:40:46;94908.03;;;4.55;63.26
62697;BME280;48761;42.680;23.312;2023-11-19T10:43:12;94926.28;;;4.60;62.56
62697;BME280;48761;42.680;23.312;2023-11-19T10:45:39;94908.44;;;4.67;62.73
62697;BME280;48761;42.680;23.312;2023-11-19T10:48:06;94922.28;;;4.51;62.92
62697;BME280;48761;42.680;23.312;2023-11-19T10:50:40;94925.94;;;4.28;63.58
62697;BME280;48761;42.680;23.312;2023-11-19T10:53:09;94930.50;;;4.43;63.44
62697;BME280;48761;42.680;23.312;2023-11-19T10:55:39;94907.22;;;4.14;62.99
62697;BME280;48761;42.680;23.312;2023-11-19T10:58:08;94911.75;;;4.51;63.53
62697;BME280;48761;42.680;23.312;2023-11-19T11:00:44;94916.25;;;4.28;63.74
62697;BME280;48761;42.680;23.312;2023-11-19T11:03:16;94894.78;;;4.37;64.05
62697;BME280;48761;42.680;23.312;2023-11-19T11:05:43;94893.81;;;4.79;63.14
62697;BME280;48761;42.680;23.312;2023-11-19T11:08:11;94873.75;;;5.33;60.78
62697;BME280;48761;42.680;23.312;2023-11-19T11:10:58;94879.59;;;5.57;60.02
62697;BME280;48761;42.680;23.312;2023-11-19T11:13:25;94853.94;;;5.61;59.28
62697;BME280;48761;42.680;23.312;2023-11-19T11:15:52;94866.00;;;6.01;58.65
62697;BME280;48761;42.680;23.312;2023-11-19T11:18:18;94869.06;;;6.27;57.56
62697;BME280;48761;42.680;23.312;2023-11-19T11:20:44;94862.50;;;6.18;57.55
62697;BME280;48761;42.680;23.312;2023-11-19T11:28:59;94873.41;;;6.46;56.56
62697;BME280;48761;42.680;23.312;2023-11-19T11:39:22;94870.53;;;6.16;55.97
62697;BME280;48761;42.680;23.312;2023-11-19T11:45:15;94850.94;;;6.71;55.92
62697;BME280;48761;42.680;23.312;2023-11-19T11:50:14;94847.09;;;6.60;55.93
62697;BME280;48761;42.680;23.312;2023-11-19T11:55:26;94841.75;;;6.62;56.00
62697;BME280;48761;42.680;23.312;2023-11-19T11:57:52;94845.88;;;6.34;56.66
62697;BME280;48761;42.680;23.312;2023-11-19T12:00:22;94835.59;;;6.11;56.93
62697;BME280;48761;42.680;23.312;2023-11-19T12:02:59;94848.75;;;6.29;56.75
62697;BME280;48761;42.680;23.312;2023-11-19T12:05:26;94844.94;;;6.17;56.55
62697;BME280;48761;42.680;23.312;2023-11-19T12:08:12;94846.91;;;5.96;56.56
62697;BME280;48761;42.680;23.312;2023-11-19T12:10:50;94839.00;;;6.13;56.68
62697;BME280;48761;42.680;23.312;2023-11-19T12:13:17;94835.13;;;5.85;57.32
62697;BME280;48761;42.680;23.312;2023-11-19T12:18:27;94833.09;;;5.90;57.13
62697;BME280;48761;42.680;23.312;2023-11-19T12:20:56;94823.63;;;6.04;57.13
62697;BME280;48761;42.680;23.312;2023-11-19T12:23:23;94824.41;;;5.88;57.98
62697;BME280;48761;42.680;23.312;2023-11-19T12:25:49;94809.22;;;5.76;57.74
62697;BME280;48761;42.680;23.312;2023-11-19T12:28:22;94806.47;;;5.61;58.24
62697;BME280;48761;42.680;23.312;2023-11-19T12:30:48;94809.91;;;5.79;58.52
62697;BME280;48761;42.680;23.312;2023-11-19T12:33:14;94807.81;;;5.86;58.31
62697;BME280;48761;42.680;23.312;2023-11-19T12:35:44;94807.75;;;5.70;57.98
62697;BME280;48761;42.680;23.312;2023-11-19T12:38:19;94776.97;;;5.70;58.13
62697;BME280;48761;42.680;23.312;2023-11-19T12:40:45;94801.94;;;5.81;60.53
62697;BME280;48761;42.680;23.312;2023-11-19T12:43:21;94790.31;;;5.67;59.48
62697;BME280;48761;42.680;23.312;2023-11-19T12:45:47;94781.47;;;5.51;59.49
62697;BME280;48761;42.680;23.312;2023-11-19T12:48:13;94777.75;;;5.55;59.88
62697;BME280;48761;42.680;23.312;2023-11-19T12:50:58;94783.50;;;5.63;59.69
62697;BME280;48761;42.680;23.312;2023-11-19T12:53:26;94794.66;;;5.51;60.55
62697;BME280;48761;42.680;23.312;2023-11-19T12:55:53;94798.47;;;5.27;60.83
62697;BME280;48761;42.680;23.312;2023-11-19T12:58:32;94789.63;;;5.28;60.62
62697;BME280;48761;42.680;23.312;2023-11-19T13:01:03;94792.31;;;5.62;60.29
62697;BME280;48761;42.680;23.312;2023-11-19T13:03:33;94781.91;;;5.59;60.18
62697;BME280;48761;42.680;23.312;2023-11-19T13:06:07;94771.84;;;5.32;60.50
62697;BME280;48761;42.680;23.312;2023-11-19T13:08:38;94771.56;;;5.38;61.09
62697;BME280;48761;42.680;23.312;2023-11-19T13:11:04;94751.09;;;5.43;60.71
62697;BME280;48761;42.680;23.312;2023-11-19T13:13:30;94774.94;;;5.76;60.25
62697;BME280;48761;42.680;23.312;2023-11-19T13:16:03;94769.56;;;5.43;60.78
62697;BME280;48761;42.680;23.312;2023-11-19T13:18:30;94785.56;;;5.56;60.89
62697;BME280;48761;42.680;23.312;2023-11-19T13:20:56;94756.50;;;5.40;60.69
62697;BME280;48761;42.680;23.312;2023-11-19T13:23:22;94749.22;;;5.45;60.45
62697;BME280;48761;42.680;23.312;2023-11-19T13:25:48;94762.69;;;5.57;60.19